sensor_id;sensor_type;location;lat;lon;timestamp;pressure;altitude;pressure_sealevel;temperature;humidity
10476;BME280;26166;48.264;11.436;2023-04-28T00:00:56;96180.13;;;12.47;56.68
10476;BME280;26166;48.264;11.436;2023-04-28T00:03:56;96180.97;;;12.48;56.73
10476;BME280;26166;48.264;11.436;2023-04-28T00:06:57;96177.69;;;12.46;56.84
10476;BME280;26166;48.264;11.436;2023-04-28T00:09:58;96179.31;;;12.47;56.75
10476;BME280;26166;48.264;11.436;2023-04-28T00:12:58;96181.34;;;12.45;56.81
10476;BME280;26166;48.264;11.436;2023-04-28T00:15:58;96172.44;;;12.46;56.79
10476;BME280;26166;48.264;11.436;2023-04-28T00:18:59;96168.16;;;12.45;56.86
10476;BME280;26166;48.264;11.436;2023-04-28T00:21:59;96168.31;;;12.43;56.73
10476;BME280;26166;48.264;11.436;2023-04-28T00:24:59;96161.25;;;12.44;56.76
10476;BME280;26166;48.264;11.436;2023-04-28T00:28:00;96153.34;;;12.44;57.02
10476;BME280;26166;48.264;11.436;2023-04-28T00:31:01;96158.59;;;12.44;56.96
10476;BME280;26166;48.264;11.436;2023-04-28T00:34:01;96156.97;;;12.43;56.97
10476;BME280;26166;48.264;11.436;2023-04-28T00:37:01;96157.78;;;12.43;56.90
10476;BME280;26166;48.264;11.436;2023-04-28T00:40:02;96160.63;;;12.42;57.04
10476;BME280;26166;48.264;11.436;2023-04-28T00:43:02;96154.34;;;12.43;56.90
10476;BME280;26166;48.264;11.436;2023-04-28T00:46:03;96150.06;;;12.42;57.40
10476;BME280;26166;48.264;11.436;2023-04-28T00:49:03;96156.97;;;12.43;56.86
10476;BME280;26166;48.264;11.436;2023-04-28T00:52:04;96152.72;;;12.42;57.16
10476;BME280;26166;48.264;11.436;2023-04-28T00:55:05;96151.09;;;12.41;57.16
10476;BME280;26166;48.264;11.436;2023-04-28T00:58:06;96156.34;;;12.41;56.95
10476;BME280;26166;48.264;11.436;2023-04-28T01:01:07;96143.34;;;12.39;56.89
10476;BME280;26166;48.264;11.436;2023-04-28T01:04:08;96148.59;;;12.39;57.17
10476;BME280;26166;48.264;11.436;2023-04-28T01:07:08;96134.63;;;12.38;57.22
10476;BME280;26166;48.264;11.436;2023-04-28T01:10:08;96138.06;;;12.39;56.96
10476;BME280;26166;48.264;11.436;2023-04-28T01:13:08;96125.91;;;12.38;57.07
10476;BME280;26166;48.264;11.436;2023-04-28T01:16:09;96133.00;;;12.37;57.40
10476;BME280;26166;48.264;11.436;2023-04-28T01:19:12;96115.56;;;12.36;57.35
10476;BME280;26166;48.264;11.436;2023-04-28T01:22:15;96112.94;;;12.36;57.10
10476;BME280;26166;48.264;11.436;2023-04-28T01:25:16;96113.94;;;12.35;57.26
10476;BME280;26166;48.264;11.436;2023-04-28T01:28:16;96113.94;;;12.35;57.29
10476;BME280;26166;48.264;11.436;2023-04-28T01:31:16;96108.00;;;12.33;57.40
10476;BME280;26166;48.264;11.436;2023-04-28T01:34:16;96105.38;;;12.33;57.43
10476;BME280;26166;48.264;11.436;2023-04-28T01:37:17;96102.13;;;12.31;57.36
10476;BME280;26166;48.264;11.436;2023-04-28T01:40:17;96102.94;;;12.32;57.31
10476;BME280;26166;48.264;11.436;2023-04-28T01:43:17;96098.47;;;12.32;57.24
10476;BME280;26166;48.264;11.436;2023-04-28T01:46:17;96111.00;;;12.30;57.47
10476;BME280;26166;48.264;11.436;2023-04-28T01:49:18;96107.75;;;12.28;57.53
10476;BME280;26166;48.264;11.436;2023-04-28T01:52:18;96103.63;;;12.26;57.91
10476;BME280;26166;48.264;11.436;2023-04-28T01:55:21;96100.38;;;12.24;57.94
10476;BME280;26166;48.264;11.436;2023-04-28T01:58:21;96104.03;;;12.23;58.13
10476;BME280;26166;48.264;11.436;2023-04-28T02:01:21;96104.84;;;12.23;58.06
10476;BME280;26166;48.264;11.436;2023-04-28T02:04:22;96117.81;;;12.25;57.76
10476;BME280;26166;48.264;11.436;2023-04-28T02:07:22;96121.91;;;12.27;57.73
10476;BME280;26166;48.264;11.436;2023-04-28T02:10:22;96118.28;;;12.28;57.69
10476;BME280;26166;48.264;11.436;2023-04-28T02:13:23;96114.63;;;12.29;57.86
10476;BME280;26166;48.264;11.436;2023-04-28T02:16:23;96113.81;;;12.29;57.73
10476;BME280;26166;48.264;11.436;2023-04-28T02:19:23;96113.47;;;12.32;57.48
10476;BME280;26166;48.264;11.436;2023-04-28T02:22:23;96101.47;;;12.29;57.68
10476;BME280;26166;48.264;11.436;2023-04-28T02:25:23;96099.66;;;12.30;57.74
10476;BME280;26166;48.264;11.436;2023-04-28T02:28:24;96110.19;;;12.30;57.79
10476;BME280;26166;48.264;11.436;2023-04-28T02:31:24;96108.56;;;12.29;57.74
10476;BME280;26166;48.264;11.436;2023-04-28T02:34:24;96088.03;;;12.24;57.94
10476;BME280;26166;48.264;11.436;2023-04-28T02:37:25;96089.66;;;12.25;58.17
10476;BME280;26166;48.264;11.436;2023-04-28T02:40:25;96087.03;;;12.25;58.27
10476;BME280;26166;48.264;11.436;2023-04-28T02:43:25;96091.66;;;12.23;58.19
10476;BME280;26166;48.264;11.436;2023-04-28T02:46:26;96084.59;;;12.24;58.42
10476;BME280;26166;48.264;11.436;2023-04-28T02:49:26;96081.75;;;12.25;58.44
10476;BME280;26166;48.264;11.436;2023-04-28T02:52:26;96087.41;;;12.22;58.56
10476;BME280;26166;48.264;11.436;2023-04-28T02:55:27;96085.59;;;12.23;58.38
10476;BME280;26166;48.264;11.436;2023-04-28T02:58:27;96088.38;;;12.21;58.39
10476;BME280;26166;48.264;11.436;2023-04-28T03:01:27;96077.84;;;12.21;58.55
10476;BME280;26166;48.264;11.436;2023-04-28T03:04:27;96073.59;;;12.20;59.00
10476;BME280;26166;48.264;11.436;2023-04-28T03:07:28;96066.69;;;12.19;59.16
10476;BME280;26166;48.264;11.436;2023-04-28T03:10:28;96076.22;;;12.20;58.81
10476;BME280;26166;48.264;11.436;2023-04-28T03:13:28;96071.78;;;12.21;58.95
10476;BME280;26166;48.264;11.436;2023-04-28T03:16:29;96067.31;;;12.21;59.24
10476;BME280;26166;48.264;11.436;2023-04-28T03:19:29;96060.41;;;12.20;59.51
10476;BME280;26166;48.264;11.436;2023-04-28T03:22:29;96058.59;;;12.21;59.40
10476;BME280;26166;48.264;11.436;2023-04-28T03:25:29;96072.41;;;12.23;59.32
10476;BME280;26166;48.264;11.436;2023-04-28T03:28:30;96073.31;;;12.15;59.71
10476;BME280;26166;48.264;11.436;2023-04-28T03:31:30;96077.97;;;12.13;60.03
10476;BME280;26166;48.264;11.436;2023-04-28T03:34:31;96074.31;;;12.14;60.25
10476;BME280;26166;48.264;11.436;2023-04-28T03:37:31;96078.59;;;12.15;60.38
10476;BME280;26166;48.264;11.436;2023-04-28T03:40:31;96076.75;;;12.16;60.36
10476;BME280;26166;48.264;11.436;2023-04-28T03:43:32;96066.22;;;12.16;60.26
10476;BME280;26166;48.264;11.436;2023-04-28T03:46:34;96072.31;;;12.16;60.26
10476;BME280;26166;48.264;11.436;2023-04-28T03:49:34;96080.88;;;12.18;60.27
10476;BME280;26166;48.264;11.436;2023-04-28T03:52:34;96080.88;;;12.18;60.14
10476;BME280;26166;48.264;11.436;2023-04-28T03:55:35;96084.47;;;12.17;60.40
10476;BME280;26166;48.264;11.436;2023-04-28T03:58:35;96089.75;;;12.17;60.49
10476;BME280;26166;48.264;11.436;2023-04-28T04:01:35;96103.28;;;12.14;60.97
10476;BME280;26166;48.264;11.436;2023-04-28T04:04:36;96095.75;;;12.11;61.33
10476;BME280;26166;48.264;11.436;2023-04-28T04:07:36;96102.63;;;12.12;61.59
10476;BME280;26166;48.264;11.436;2023-04-28T04:10:36;96095.53;;;12.12;61.49
10476;BME280;26166;48.264;11.436;2023-04-28T04:13:36;96088.50;;;12.13;61.54
10476;BME280;26166;48.264;11.436;2023-04-28T04:16:37;96090.13;;;12.14;61.83
10476;BME280;26166;48.264;11.436;2023-04-28T04:19:37;96076.97;;;12.14;61.82
10476;BME280;26166;48.264;11.436;2023-04-28T04:22:37;96074.13;;;12.16;62.07
10476;BME280;26166;48.264;11.436;2023-04-28T04:25:37;96068.25;;;12.14;62.33
10476;BME280;26166;48.264;11.436;2023-04-28T04:28:38;96058.69;;;12.12;62.32
10476;BME280;26166;48.264;11.436;2023-04-28T04:31:39;96054.44;;;12.11;62.20
10476;BME280;26166;48.264;11.436;2023-04-28T04:34:40;96049.00;;;12.13;62.47
10476;BME280;26166;48.264;11.436;2023-04-28T04:37:40;96044.09;;;12.10;62.98
10476;BME280;26166;48.264;11.436;2023-04-28T04:40:40;96046.25;;;12.06;63.09
10476;BME280;26166;48.264;11.436;2023-04-28T04:43:40;96041.34;;;12.03;63.16
10476;BME280;26166;48.264;11.436;2023-04-28T04:46:40;96036.28;;;12.02;63.43
10476;BME280;26166;48.264;11.436;2023-04-28T04:49:41;96037.28;;;12.01;63.46
10476;BME280;26166;48.264;11.436;2023-04-28T04:52:41;96042.53;;;12.01;63.86
10476;BME280;26166;48.264;11.436;2023-04-28T04:55:41;96042.16;;;12.04;63.62
10476;BME280;26166;48.264;11.436;2023-04-28T04:58:42;96048.69;;;12.08;63.80
10476;BME280;26166;48.264;11.436;2023-04-28T05:01:43;96060.03;;;12.08;63.46
10476;BME280;26166;48.264;11.436;2023-04-28T05:04:43;96065.78;;;12.12;63.47
10476;BME280;26166;48.264;11.436;2023-04-28T05:07:44;96071.69;;;12.14;63.93
10476;BME280;26166;48.264;11.436;2023-04-28T05:10:44;96069.06;;;12.14;63.69
10476;BME280;26166;48.264;11.436;2023-04-28T05:13:44;96082.84;;;12.16;63.61
10476;BME280;26166;48.264;11.436;2023-04-28T05:16:44;96082.84;;;12.16;63.71
10476;BME280;26166;48.264;11.436;2023-04-28T05:19:44;96077.59;;;12.16;63.91
10476;BME280;26166;48.264;11.436;2023-04-28T05:22:45;96082.84;;;12.16;63.85
10476;BME280;26166;48.264;11.436;2023-04-28T05:25:45;96082.03;;;12.16;63.52
10476;BME280;26166;48.264;11.436;2023-04-28T05:28:46;96077.59;;;12.16;63.17
10476;BME280;26166;48.264;11.436;2023-04-28T05:31:46;96067.25;;;12.15;63.26
10476;BME280;26166;48.264;11.436;2023-04-28T05:34:46;96063.41;;;12.17;63.46
10476;BME280;26166;48.264;11.436;2023-04-28T05:37:47;96062.44;;;12.18;63.89
10476;BME280;26166;48.264;11.436;2023-04-28T05:40:47;96061.78;;;12.16;64.07
10476;BME280;26166;48.264;11.436;2023-04-28T05:43:47;96065.41;;;12.15;64.24
10476;BME280;26166;48.264;11.436;2023-04-28T05:46:50;96064.13;;;12.11;64.27
10476;BME280;26166;48.264;11.436;2023-04-28T05:49:50;96063.13;;;12.12;64.51
10476;BME280;26166;48.264;11.436;2023-04-28T05:52:50;96064.13;;;12.11;64.87
10476;BME280;26166;48.264;11.436;2023-04-28T05:55:50;96066.44;;;12.14;64.69
10476;BME280;26166;48.264;11.436;2023-04-28T05:58:51;96067.25;;;12.15;64.81
10476;BME280;26166;48.264;11.436;2023-04-28T06:01:52;96073.50;;;12.14;64.60
10476;BME280;26166;48.264;11.436;2023-04-28T06:04:52;96088.75;;;12.18;64.22
10476;BME280;26166;48.264;11.436;2023-04-28T06:07:52;96071.16;;;12.19;63.85
10476;BME280;26166;48.264;11.436;2023-04-28T06:10:54;96058.97;;;12.18;64.07
10476;BME280;26166;48.264;11.436;2023-04-28T06:13:55;96067.69;;;12.18;64.54
10476;BME280;26166;48.264;11.436;2023-04-28T06:16:55;96065.06;;;12.18;64.27
10476;BME280;26166;48.264;11.436;2023-04-28T06:19:55;96067.69;;;12.18;64.49
10476;BME280;26166;48.264;11.436;2023-04-28T06:22:57;96052.53;;;12.20;64.74
10476;BME280;26166;48.264;11.436;2023-04-28T06:25:58;96058.13;;;12.17;64.85
10476;BME280;26166;48.264;11.436;2023-04-28T06:28:58;96048.00;;;12.14;65.47
10476;BME280;26166;48.264;11.436;2023-04-28T06:31:58;96054.06;;;12.15;65.11
10476;BME280;26166;48.264;11.436;2023-04-28T06:34:58;96055.34;;;12.19;65.17
10476;BME280;26166;48.264;11.436;2023-04-28T06:37:58;96063.06;;;12.20;64.92
10476;BME280;26166;48.264;11.436;2023-04-28T06:40:59;96056.44;;;12.24;65.29
10476;BME280;26166;48.264;11.436;2023-04-28T06:43:59;96050.16;;;12.25;65.11
10476;BME280;26166;48.264;11.436;2023-04-28T06:46:59;96038.00;;;12.24;65.04
10476;BME280;26166;48.264;11.436;2023-04-28T06:50:00;96040.00;;;12.22;65.59
10476;BME280;26166;48.264;11.436;2023-04-28T06:53:00;96045.63;;;12.19;66.00
10476;BME280;26166;48.264;11.436;2023-04-28T06:56:01;96044.00;;;12.18;66.39
10476;BME280;26166;48.264;11.436;2023-04-28T06:59:02;96040.38;;;12.19;66.60
10476;BME280;26166;48.264;11.436;2023-04-28T07:02:02;96035.91;;;12.20;66.32
10476;BME280;26166;48.264;11.436;2023-04-28T07:05:02;96034.75;;;12.22;66.47
10476;BME280;26166;48.264;11.436;2023-04-28T07:08:03;96030.44;;;12.21;65.85
10476;BME280;26166;48.264;11.436;2023-04-28T07:11:03;96030.44;;;12.21;66.72
10476;BME280;26166;48.264;11.436;2023-04-28T07:14:04;96028.47;;;12.23;66.67
10476;BME280;26166;48.264;11.436;2023-04-28T07:17:04;96020.56;;;12.23;66.23
10476;BME280;26166;48.264;11.436;2023-04-28T07:20:05;96024.81;;;12.24;66.55
10476;BME280;26166;48.264;11.436;2023-04-28T07:23:05;96031.09;;;12.23;66.90
10476;BME280;26166;48.264;11.436;2023-04-28T07:26:06;96027.47;;;12.24;66.30
10476;BME280;26166;48.264;11.436;2023-04-28T07:29:07;96035.16;;;12.26;66.28
10476;BME280;26166;48.264;11.436;2023-04-28T07:32:08;96030.56;;;12.28;66.31
10476;BME280;26166;48.264;11.436;2023-04-28T07:35:09;96034.00;;;12.28;66.45
10476;BME280;26166;48.264;11.436;2023-04-28T07:38:09;96039.25;;;12.28;65.73
10476;BME280;26166;48.264;11.436;2023-04-28T07:41:09;96041.09;;;12.28;65.71
10476;BME280;26166;48.264;11.436;2023-04-28T07:44:10;96049.81;;;12.28;66.55
10476;BME280;26166;48.264;11.436;2023-04-28T07:47:10;96048.78;;;12.29;66.48
10476;BME280;26166;48.264;11.436;2023-04-28T07:50:10;96045.34;;;12.29;66.47
10476;BME280;26166;48.264;11.436;2023-04-28T07:53:11;96044.53;;;12.28;67.59
10476;BME280;26166;48.264;11.436;2023-04-28T07:56:11;96043.72;;;12.28;67.78
10476;BME280;26166;48.264;11.436;2023-04-28T07:59:12;96044.53;;;12.28;68.58
10476;BME280;26166;48.264;11.436;2023-04-28T08:02:12;96044.53;;;12.28;68.46
10476;BME280;26166;48.264;11.436;2023-04-28T08:05:14;96030.75;;;12.26;69.02
10476;BME280;26166;48.264;11.436;2023-04-28T08:08:23;96027.47;;;12.24;69.10
10476;BME280;26166;48.264;11.436;2023-04-28T08:11:23;96024.00;;;12.24;69.93
10476;BME280;26166;48.264;11.436;2023-04-28T08:14:24;96019.75;;;12.23;70.51
10476;BME280;26166;48.264;11.436;2023-04-28T08:17:24;96011.66;;;12.24;70.52
10476;BME280;26166;48.264;11.436;2023-04-28T08:20:24;96014.09;;;12.26;70.09
10476;BME280;26166;48.264;11.436;2023-04-28T08:23:25;96023.47;;;12.28;70.33
10476;BME280;26166;48.264;11.436;2023-04-28T08:26:27;96019.81;;;12.29;70.14
10476;BME280;26166;48.264;11.436;2023-04-28T08:29:30;96014.56;;;12.29;69.28
10476;BME280;26166;48.264;11.436;2023-04-28T08:32:31;96018.81;;;12.30;70.06
10476;BME280;26166;48.264;11.436;2023-04-28T08:35:31;96019.81;;;12.29;69.36
10476;BME280;26166;48.264;11.436;2023-04-28T08:38:32;96008.28;;;12.30;69.14
10476;BME280;26166;48.264;11.436;2023-04-28T08:41:32;96007.47;;;12.30;69.91
10476;BME280;26166;48.264;11.436;2023-04-28T08:44:36;96001.22;;;12.31;70.25
10476;BME280;26166;48.264;11.436;2023-04-28T08:47:38;95993.50;;;12.29;70.25
10476;BME280;26166;48.264;11.436;2023-04-28T08:50:40;95987.06;;;12.32;69.48
10476;BME280;26166;48.264;11.436;2023-04-28T08:53:43;95971.25;;;12.32;70.11
10476;BME280;26166;48.264;11.436;2023-04-28T08:56:44;95972.06;;;12.32;69.87
10476;BME280;26166;48.264;11.436;2023-04-28T08:59:45;95980.97;;;12.31;70.73
10476;BME280;26166;48.264;11.436;2023-04-28T09:02:45;95985.22;;;12.32;70.27
10476;BME280;26166;48.264;11.436;2023-04-28T09:05:46;95984.22;;;12.33;70.68
10476;BME280;26166;48.264;11.436;2023-04-28T09:08:46;95984.22;;;12.33;69.93
10476;BME280;26166;48.264;11.436;2023-04-28T09:11:50;95978.59;;;12.36;70.24
10476;BME280;26166;48.264;11.436;2023-04-28T09:14:50;95980.22;;;12.37;70.00
10476;BME280;26166;48.264;11.436;2023-04-28T09:17:57;95981.03;;;12.38;69.63
10476;BME280;26166;48.264;11.436;2023-04-28T09:21:07;95974.16;;;12.37;69.46
10476;BME280;26166;48.264;11.436;2023-04-28T09:24:07;95979.22;;;12.38;68.93
10476;BME280;26166;48.264;11.436;2023-04-28T09:27:08;95975.59;;;12.40;69.36
10476;BME280;26166;48.264;11.436;2023-04-28T09:30:10;95978.25;;;12.40;69.30
10476;BME280;26166;48.264;11.436;2023-04-28T09:33:11;95970.34;;;12.40;69.15
10476;BME280;26166;48.264;11.436;2023-04-28T09:36:11;95966.69;;;12.41;69.01
10476;BME280;26166;48.264;11.436;2023-04-28T09:39:11;95970.13;;;12.41;69.40
10476;BME280;26166;48.264;11.436;2023-04-28T09:45:32;95958.78;;;12.41;69.92
10476;BME280;26166;48.264;11.436;2023-04-28T09:48:41;95963.41;;;12.38;70.25
10476;BME280;26166;48.264;11.436;2023-04-28T09:51:41;95967.88;;;12.38;69.47
10476;BME280;26166;48.264;11.436;2023-04-28T09:54:42;95966.84;;;12.39;70.16
10476;BME280;26166;48.264;11.436;2023-04-28T09:57:42;95965.06;;;12.40;69.73
10476;BME280;26166;48.264;11.436;2023-04-28T10:00:43;95957.16;;;12.40;70.00
10476;BME280;26166;48.264;11.436;2023-04-28T10:03:44;95962.59;;;12.38;70.50
10476;BME280;26166;48.264;11.436;2023-04-28T10:06:44;95959.50;;;12.34;70.93
10476;BME280;26166;48.264;11.436;2023-04-28T10:09:46;95960.31;;;12.35;70.97
10476;BME280;26166;48.264;11.436;2023-04-28T10:12:49;95964.78;;;12.34;71.55
10476;BME280;26166;48.264;11.436;2023-04-28T10:15:50;95962.34;;;12.33;71.11
10476;BME280;26166;48.264;11.436;2023-04-28T10:18:53;95952.00;;;12.31;70.69
10476;BME280;26166;48.264;11.436;2023-04-28T10:25:16;95951.00;;;12.32;70.83
10476;BME280;26166;48.264;11.436;2023-04-28T10:28:21;95944.09;;;12.31;71.98
10476;BME280;26166;48.264;11.436;2023-04-28T10:31:22;95946.72;;;12.31;71.21
10476;BME280;26166;48.264;11.436;2023-04-28T10:34:22;95947.34;;;12.33;71.30
10476;BME280;26166;48.264;11.436;2023-04-28T10:43:43;95954.06;;;12.36;72.22
10476;BME280;26166;48.264;11.436;2023-04-28T10:50:16;95956.16;;;12.41;70.88
10476;BME280;26166;48.264;11.436;2023-04-28T10:53:16;95949.06;;;12.41;70.64
10476;BME280;26166;48.264;11.436;2023-04-28T10:56:20;95948.72;;;12.44;70.76
10476;BME280;26166;48.264;11.436;2023-04-28T10:59:24;95951.97;;;12.46;71.34
10476;BME280;26166;48.264;11.436;2023-04-28T11:02:35;95947.50;;;12.47;71.88
10476;BME280;26166;48.264;11.436;2023-04-28T11:05:37;95953.59;;;12.47;70.75
10476;BME280;26166;48.264;11.436;2023-04-28T11:08:37;95959.66;;;12.48;71.08
10476;BME280;26166;48.264;11.436;2023-04-28T11:11:37;95949.94;;;12.48;71.47
10476;BME280;26166;48.264;11.436;2023-04-28T11:14:38;95960.31;;;12.50;72.19
10476;BME280;26166;48.264;11.436;2023-04-28T11:17:40;95959.66;;;12.48;71.38
10476;BME280;26166;48.264;11.436;2023-04-28T11:20:40;95966.41;;;12.50;72.33
10476;BME280;26166;48.264;11.436;2023-04-28T11:23:42;95966.59;;;12.49;72.55
10476;BME280;26166;48.264;11.436;2023-04-28T11:26:43;95969.84;;;12.51;71.87
10476;BME280;26166;48.264;11.436;2023-04-28T11:29:43;95976.94;;;12.50;72.08
10476;BME280;26166;48.264;11.436;2023-04-28T11:32:48;95983.66;;;12.53;72.31
10476;BME280;26166;48.264;11.436;2023-04-28T11:35:48;95978.56;;;12.51;72.13
10476;BME280;26166;48.264;11.436;2023-04-28T11:38:48;95980.38;;;12.51;72.39
10476;BME280;26166;48.264;11.436;2023-04-28T11:41:49;95972.28;;;12.52;71.37
10476;BME280;26166;48.264;11.436;2023-04-28T11:44:49;95965.38;;;12.51;71.66
10476;BME280;26166;48.264;11.436;2023-04-28T11:47:53;95960.75;;;12.53;71.73
10476;BME280;26166;48.264;11.436;2023-04-28T11:50:53;95952.66;;;12.55;72.09
10476;BME280;26166;48.264;11.436;2023-04-28T11:53:53;95945.56;;;12.55;72.37
10476;BME280;26166;48.264;11.436;2023-04-28T11:56:54;95938.31;;;12.57;71.32
10476;BME280;26166;48.264;11.436;2023-04-28T12:00:13;95937.66;;;12.55;71.83
10476;BME280;26166;48.264;11.436;2023-04-28T12:03:13;95943.13;;;12.54;72.20
10476;BME280;26166;48.264;11.436;2023-04-28T12:06:17;95946.03;;;12.59;71.60
10476;BME280;26166;48.264;11.436;2023-04-28T12:09:20;95941.94;;;12.56;71.29
10476;BME280;26166;48.264;11.436;2023-04-28T12:12:27;95952.47;;;12.56;71.59
10476;BME280;26166;48.264;11.436;2023-04-28T12:15:38;95944.41;;;12.58;71.79
10476;BME280;26166;48.264;11.436;2023-04-28T12:18:44;95962.84;;;12.58;71.60
10476;BME280;26166;48.264;11.436;2023-04-28T12:22:04;95951.09;;;12.60;73.94
10476;BME280;26166;48.264;11.436;2023-04-28T12:25:11;95958.19;;;12.60;72.83
10476;BME280;26166;48.264;11.436;2023-04-28T12:28:11;95957.38;;;12.59;73.01
10476;BME280;26166;48.264;11.436;2023-04-28T12:31:11;95963.25;;;12.61;75.43
10476;BME280;26166;48.264;11.436;2023-04-28T12:34:12;95961.63;;;12.60;75.56
10476;BME280;26166;48.264;11.436;2023-04-28T12:37:13;95968.72;;;12.60;74.49
10476;BME280;26166;48.264;11.436;2023-04-28T12:40:13;95964.09;;;12.62;75.25
10476;BME280;26166;48.264;11.436;2023-04-28T12:43:13;95962.44;;;12.61;75.56
10476;BME280;26166;48.264;11.436;2023-04-28T12:46:14;95963.47;;;12.60;74.26
10476;BME280;26166;48.264;11.436;2023-04-28T12:49:14;95956.56;;;12.59;74.26
10476;BME280;26166;48.264;11.436;2023-04-28T12:52:14;95956.44;;;12.67;74.31
10476;BME280;26166;48.264;11.436;2023-04-28T12:55:15;95955.22;;;12.84;74.75
10476;BME280;26166;48.264;11.436;2023-04-28T12:58:15;95953.69;;;12.97;73.42
10476;BME280;26166;48.264;11.436;2023-04-28T13:01:16;95956.03;;;13.06;73.90
10476;BME280;26166;48.264;11.436;2023-04-28T13:04:17;95945.97;;;13.17;74.54
10476;BME280;26166;48.264;11.436;2023-04-28T13:07:17;95945.66;;;13.26;74.73
10476;BME280;26166;48.264;11.436;2023-04-28T13:10:18;95941.06;;;13.35;74.31
10476;BME280;26166;48.264;11.436;2023-04-28T13:13:20;95937.03;;;13.39;75.53
10476;BME280;26166;48.264;11.436;2023-04-28T13:16:20;95923.63;;;13.41;74.95
10476;BME280;26166;48.264;11.436;2023-04-28T13:19:20;95928.53;;;13.44;72.82
10476;BME280;26166;48.264;11.436;2023-04-28T13:22:21;95925.97;;;13.50;73.45
10476;BME280;26166;48.264;11.436;2023-04-28T13:25:21;95931.72;;;13.60;73.16
10476;BME280;26166;48.264;11.436;2023-04-28T13:28:21;95929.50;;;13.64;74.66
10476;BME280;26166;48.264;11.436;2023-04-28T13:31:21;95939.84;;;13.66;74.93
10476;BME280;26166;48.264;11.436;2023-04-28T13:34:22;95926.66;;;13.66;75.30
10476;BME280;26166;48.264;11.436;2023-04-28T13:37:22;95922.56;;;13.63;75.19
10476;BME280;26166;48.264;11.436;2023-04-28T13:40:22;95927.00;;;13.56;75.00
10476;BME280;26166;48.264;11.436;2023-04-28T13:43:24;95924.13;;;13.51;74.35
10476;BME280;26166;48.264;11.436;2023-04-28T13:46:24;95918.66;;;13.52;75.54
10476;BME280;26166;48.264;11.436;2023-04-28T13:49:24;95922.06;;;13.46;74.36
10476;BME280;26166;48.264;11.436;2023-04-28T13:52:25;95917.63;;;13.47;74.13
10476;BME280;26166;48.264;11.436;2023-04-28T13:55:25;95918.00;;;13.44;74.70
10476;BME280;26166;48.264;11.436;2023-04-28T13:58:28;95907.00;;;13.40;74.23
10476;BME280;26166;48.264;11.436;2023-04-28T14:01:29;95905.16;;;13.41;73.83
10476;BME280;26166;48.264;11.436;2023-04-28T14:04:29;95915.72;;;13.41;73.98
10476;BME280;26166;48.264;11.436;2023-04-28T14:07:29;95910.28;;;13.42;74.32
10476;BME280;26166;48.264;11.436;2023-04-28T14:10:29;95911.09;;;13.43;74.33
10476;BME280;26166;48.264;11.436;2023-04-28T14:13:30;95912.72;;;13.44;73.70
10476;BME280;26166;48.264;11.436;2023-04-28T14:16:30;95907.22;;;13.45;74.63
10476;BME280;26166;48.264;11.436;2023-04-28T14:19:30;95905.41;;;13.46;74.50
10476;BME280;26166;48.264;11.436;2023-04-28T14:22:30;95905.22;;;13.47;75.15
10476;BME280;26166;48.264;11.436;2023-04-28T14:25:31;95901.78;;;13.47;75.39
10476;BME280;26166;48.264;11.436;2023-04-28T14:28:31;95908.31;;;13.51;73.80
10476;BME280;26166;48.264;11.436;2023-04-28T14:31:31;95911.34;;;13.54;74.47
10476;BME280;26166;48.264;11.436;2023-04-28T14:34:32;95911.19;;;13.56;75.57
10476;BME280;26166;48.264;11.436;2023-04-28T14:37:33;95903.03;;;13.51;74.39
10476;BME280;26166;48.264;11.436;2023-04-28T14:40:33;95907.09;;;13.53;75.74
10476;BME280;26166;48.264;11.436;2023-04-28T14:43:34;95900.56;;;13.49;75.44
10476;BME280;26166;48.264;11.436;2023-04-28T14:46:34;95899.72;;;13.42;74.72
10476;BME280;26166;48.264;11.436;2023-04-28T14:49:35;95898.06;;;13.41;75.42
10476;BME280;26166;48.264;11.436;2023-04-28T14:52:35;95898.47;;;13.38;75.11
10476;BME280;26166;48.264;11.436;2023-04-28T14:55:37;95905.13;;;13.34;74.26
10476;BME280;26166;48.264;11.436;2023-04-28T14:58:37;95901.28;;;13.36;76.09
10476;BME280;26166;48.264;11.436;2023-04-28T15:01:37;95903.13;;;13.36;76.49
10476;BME280;26166;48.264;11.436;2023-04-28T15:04:38;95903.91;;;13.36;76.51
10476;BME280;26166;48.264;11.436;2023-04-28T15:07:38;95896.41;;;13.33;75.80
10476;BME280;26166;48.264;11.436;2023-04-28T15:10:39;95904.91;;;13.29;75.78
10476;BME280;26166;48.264;11.436;2023-04-28T15:13:41;95910.94;;;13.23;76.28
10476;BME280;26166;48.264;11.436;2023-04-28T15:16:42;95901.56;;;13.20;76.08
10476;BME280;26166;48.264;11.436;2023-04-28T15:19:42;95909.47;;;13.20;76.63
10476;BME280;26166;48.264;11.436;2023-04-28T15:22:43;95919.00;;;13.21;76.12
10476;BME280;26166;48.264;11.436;2023-04-28T15:25:43;95921.00;;;13.19;75.74
10476;BME280;26166;48.264;11.436;2023-04-28T15:28:43;95924.28;;;13.21;76.24
10476;BME280;26166;48.264;11.436;2023-04-28T15:31:43;95924.28;;;13.21;75.95
10476;BME280;26166;48.264;11.436;2023-04-28T15:34:44;95909.84;;;13.17;75.88
10476;BME280;26166;48.264;11.436;2023-04-28T15:37:45;95909.25;;;13.15;76.49
10476;BME280;26166;48.264;11.436;2023-04-28T15:40:50;95924.66;;;13.18;77.33
10476;BME280;26166;48.264;11.436;2023-04-28T15:43:50;95928.91;;;13.19;77.62
10476;BME280;26166;48.264;11.436;2023-04-28T15:46:51;95917.56;;;13.19;78.32
10476;BME280;26166;48.264;11.436;2023-04-28T15:49:51;95916.13;;;13.16;77.19
10476;BME280;26166;48.264;11.436;2023-04-28T15:52:51;95918.56;;;13.18;77.60
10476;BME280;26166;48.264;11.436;2023-04-28T15:55:52;95915.31;;;13.16;77.28
10476;BME280;26166;48.264;11.436;2023-04-28T15:58:52;95920.53;;;13.09;76.95
10476;BME280;26166;48.264;11.436;2023-04-28T16:01:52;95912.81;;;13.07;76.15